sensor_id;sensor_type;location;lat;lon;timestamp;temperature;humidity
6662;DHT22;3367;48.714;8.994;2023-11-21T00:01:00;7.30;1.00
6662;DHT22;3367;48.714;8.994;2023-11-21T00:03:34;7.30;1.00
6662;DHT22;3367;48.714;8.994;2023-11-21T00:06:04;7.30;1.00
6662;DHT22;3367;48.714;8.994;2023-11-21T00:08:35;7.40;1.00
6662;DHT22;3367;48.714;8.994;2023-11-21T00:11:01;7.40;1.00
6662;DHT22;3367;48.714;8.994;2023-11-21T00:13:30;7.40;1.00
6662;DHT22;3367;48.714;8.994;2023-11-21T00:15:57;7.40;1.00
6662;DHT22;3367;48.714;8.994;2023-11-21T00:18:24;7.40;1.00
6662;DHT22;3367;48.714;8.994;2023-11-21T00:20:55;7.40;1.00
6662;DHT22;3367;48.714;8.994;2023-11-21T00:23:24;7.50;1.00
6662;DHT22;3367;48.714;8.994;2023-11-21T00:25:57;7.50;1.00
6662;DHT22;3367;48.714;8.994;2023-11-21T00:28:24;7.50;1.00
6662;DHT22;3367;48.714;8.994;2023-11-21T00:30:54;7.50;1.00
6662;DHT22;3367;48.714;8.994;2023-11-21T00:33:21;7.50;1.00
6662;DHT22;3367;48.714;8.994;2023-11-21T00:35:55;7.60;1.00
6662;DHT22;3367;48.714;8.994;2023-11-21T00:38:22;7.60;1.00
6662;DHT22;3367;48.714;8.994;2023-11-21T00:40:48;7.60;1.00
6662;DHT22;3367;48.714;8.994;2023-11-21T00:43:18;7.60;1.00
6662;DHT22;3367;48.714;8.994;2023-11-21T00:45:45;7.60;1.00
6662;DHT22;3367;48.714;8.994;2023-11-21T00:48:14;7.60;1.00
6662;DHT22;3367;48.714;8.994;2023-11-21T00:50:41;7.50;1.00
6662;DHT22;3367;48.714;8.994;2023-11-21T00:53:09;7.50;1.00
6662;DHT22;3367;48.714;8.994;2023-11-21T00:55:36;7.50;1.00
6662;DHT22;3367;48.714;8.994;2023-11-21T00:58:05;7.60;1.00
6662;DHT22;3367;48.714;8.994;2023-11-21T01:00:32;7.50;1.00
6662;DHT22;3367;48.714;8.994;2023-11-21T01:03:05;7.60;1.00
6662;DHT22;3367;48.714;8.994;2023-11-21T01:05:33;7.60;1.00
6662;DHT22;3367;48.714;8.994;2023-11-21T01:08:00;7.60;1.00
6662;DHT22;3367;48.714;8.994;2023-11-21T01:10:28;7.60;1.00
6662;DHT22;3367;48.714;8.994;2023-11-21T01:12:57;7.60;1.00
6662;DHT22;3367;48.714;8.994;2023-11-21T01:15:24;7.50;1.00
6662;DHT22;3367;48.714;8.994;2023-11-21T01:17:54;7.60;1.00
6662;DHT22;3367;48.714;8.994;2023-11-21T01:20:32;7.60;1.00
6662;DHT22;3367;48.714;8.994;2023-11-21T01:22:59;7.60;1.00
6662;DHT22;3367;48.714;8.994;2023-11-21T01:25:27;7.60;1.00
6662;DHT22;3367;48.714;8.994;2023-11-21T01:27:54;7.60;1.00
6662;DHT22;3367;48.714;8.994;2023-11-21T01:30:25;7.60;1.00
6662;DHT22;3367;48.714;8.994;2023-11-21T01:32:52;7.60;1.00
6662;DHT22;3367;48.714;8.994;2023-11-21T01:35:21;7.60;1.00
6662;DHT22;3367;48.714;8.994;2023-11-21T01:37:50;7.60;1.00
6662;DHT22;3367;48.714;8.994;2023-11-21T01:40:17;7.60;1.00
6662;DHT22;3367;48.714;8.994;2023-11-21T01:42:48;7.60;1.00
6662;DHT22;3367;48.714;8.994;2023-11-21T01:45:18;7.60;1.00
6662;DHT22;3367;48.714;8.994;2023-11-21T01:47:45;7.60;1.00
6662;DHT22;3367;48.714;8.994;2023-11-21T01:50:15;7.60;1.00
6662;DHT22;3367;48.714;8.994;2023-11-21T01:52:46;7.60;1.00
6662;DHT22;3367;48.714;8.994;2023-11-21T01:55:17;7.60;1.00
6662;DHT22;3367;48.714;8.994;2023-11-21T01:57:48;7.60;1.00
6662;DHT22;3367;48.714;8.994;2023-11-21T02:00:22;7.60;1.00
6662;DHT22;3367;48.714;8.994;2023-11-21T02:02:55;7.60;1.00
6662;DHT22;3367;48.714;8.994;2023-11-21T02:05:25;7.60;1.00
6662;DHT22;3367;48.714;8.994;2023-11-21T02:07:52;7.60;1.00
6662;DHT22;3367;48.714;8.994;2023-11-21T02:10:22;7.60;1.00
6662;DHT22;3367;48.714;8.994;2023-11-21T02:12:50;7.60;1.00
6662;DHT22;3367;48.714;8.994;2023-11-21T02:15:23;7.60;1.00
6662;DHT22;3367;48.714;8.994;2023-11-21T02:17:56;7.60;1.00
6662;DHT22;3367;48.714;8.994;2023-11-21T02:20:26;7.60;99.90
6662;DHT22;3367;48.714;8.994;2023-11-21T02:22:57;7.60;99.90
6662;DHT22;3367;48.714;8.994;2023-11-21T02:25:33;7.50;99.90
6662;DHT22;3367;48.714;8.994;2023-11-21T02:28:03;7.50;99.90
6662;DHT22;3367;48.714;8.994;2023-11-21T02:30:32;7.50;99.90
6662;DHT22;3367;48.714;8.994;2023-11-21T02:33:02;7.50;99.90
6662;DHT22;3367;48.714;8.994;2023-11-21T02:35:32;7.50;99.90
6662;DHT22;3367;48.714;8.994;2023-11-21T02:38:00;7.50;99.90
6662;DHT22;3367;48.714;8.994;2023-11-21T02:40:26;7.50;99.90
6662;DHT22;3367;48.714;8.994;2023-11-21T02:42:53;7.50;99.90
6662;DHT22;3367;48.714;8.994;2023-11-21T02:45:27;7.50;99.90
6662;DHT22;3367;48.714;8.994;2023-11-21T02:47:57;7.50;99.90
6662;DHT22;3367;48.714;8.994;2023-11-21T02:50:29;7.50;99.90
6662;DHT22;3367;48.714;8.994;2023-11-21T02:52:56;7.40;99.90
6662;DHT22;3367;48.714;8.994;2023-11-21T02:55:27;7.40;99.90
6662;DHT22;3367;48.714;8.994;2023-11-21T02:57:54;7.40;99.90
6662;DHT22;3367;48.714;8.994;2023-11-21T03:00:24;7.40;99.90
6662;DHT22;3367;48.714;8.994;2023-11-21T03:02:56;7.30;99.90
6662;DHT22;3367;48.714;8.994;2023-11-21T03:05:24;7.20;99.90
6662;DHT22;3367;48.714;8.994;2023-11-21T03:07:51;7.20;99.90
6662;DHT22;3367;48.714;8.994;2023-11-21T03:10:20;7.10;99.90
6662;DHT22;3367;48.714;8.994;2023-11-21T03:12:48;7.00;99.90
6662;DHT22;3367;48.714;8.994;2023-11-21T03:15:15;7.00;99.90
6662;DHT22;3367;48.714;8.994;2023-11-21T03:17:41;7.00;1.00
6662;DHT22;3367;48.714;8.994;2023-11-21T03:20:09;7.00;1.00
6662;DHT22;3367;48.714;8.994;2023-11-21T03:22:39;7.00;1.00
6662;DHT22;3367;48.714;8.994;2023-11-21T03:25:07;7.00;1.00
6662;DHT22;3367;48.714;8.994;2023-11-21T03:27:36;7.00;1.00
6662;DHT22;3367;48.714;8.994;2023-11-21T03:30:05;7.00;1.00
6662;DHT22;3367;48.714;8.994;2023-11-21T03:32:35;7.10;1.00
6662;DHT22;3367;48.714;8.994;2023-11-21T03:35:04;7.10;1.00
6662;DHT22;3367;48.714;8.994;2023-11-21T03:37:34;7.10;1.00
6662;DHT22;3367;48.714;8.994;2023-11-21T03:40:01;7.10;1.00
6662;DHT22;3367;48.714;8.994;2023-11-21T03:42:32;7.10;1.00
6662;DHT22;3367;48.714;8.994;2023-11-21T03:45:07;7.20;1.00
6662;DHT22;3367;48.714;8.994;2023-11-21T03:47:34;7.20;1.00
6662;DHT22;3367;48.714;8.994;2023-11-21T03:50:01;7.20;1.00
6662;DHT22;3367;48.714;8.994;2023-11-21T03:52:29;7.20;1.00
6662;DHT22;3367;48.714;8.994;2023-11-21T03:55:01;7.30;1.00
6662;DHT22;3367;48.714;8.994;2023-11-21T03:57:28;7.20;1.00
6662;DHT22;3367;48.714;8.994;2023-11-21T03:59:54;7.20;1.00
6662;DHT22;3367;48.714;8.994;2023-11-21T04:02:22;7.20;1.00
6662;DHT22;3367;48.714;8.994;2023-11-21T04:04:53;7.20;1.00
6662;DHT22;3367;48.714;8.994;2023-11-21T04:07:20;7.20;1.00
6662;DHT22;3367;48.714;8.994;2023-11-21T04:09:49;7.20;1.00
6662;DHT22;3367;48.714;8.994;2023-11-21T04:12:18;7.20;1.00
6662;DHT22;3367;48.714;8.994;2023-11-21T04:14:47;7.20;1.00
6662;DHT22;3367;48.714;8.994;2023-11-21T04:17:18;7.20;1.00
6662;DHT22;3367;48.714;8.994;2023-11-21T04:19:46;7.20;1.00
6662;DHT22;3367;48.714;8.994;2023-11-21T04:22:15;7.30;1.00
6662;DHT22;3367;48.714;8.994;2023-11-21T04:24:49;7.20;1.00
6662;DHT22;3367;48.714;8.994;2023-11-21T04:27:22;7.30;1.00
6662;DHT22;3367;48.714;8.994;2023-11-21T04:30:01;7.20;1.00
6662;DHT22;3367;48.714;8.994;2023-11-21T04:32:28;7.20;1.00
6662;DHT22;3367;48.714;8.994;2023-11-21T04:34:56;7.20;1.00
6662;DHT22;3367;48.714;8.994;2023-11-21T04:37:23;7.20;1.00
6662;DHT22;3367;48.714;8.994;2023-11-21T04:39:53;7.20;1.00
6662;DHT22;3367;48.714;8.994;2023-11-21T04:42:19;7.20;1.00
6662;DHT22;3367;48.714;8.994;2023-11-21T04:44:46;7.20;1.00
6662;DHT22;3367;48.714;8.994;2023-11-21T04:47:13;7.20;1.00
6662;DHT22;3367;48.714;8.994;2023-11-21T04:49:49;7.20;1.00
6662;DHT22;3367;48.714;8.994;2023-11-21T04:52:32;7.20;1.00
6662;DHT22;3367;48.714;8.994;2023-11-21T04:55:06;7.20;1.00
6662;DHT22;3367;48.714;8.994;2023-11-21T04:57:35;7.20;1.00
6662;DHT22;3367;48.714;8.994;2023-11-21T05:00:02;7.20;1.00
6662;DHT22;3367;48.714;8.994;2023-11-21T05:02:31;7.10;1.00
6662;DHT22;3367;48.714;8.994;2023-11-21T05:04:59;7.10;1.00
6662;DHT22;3367;48.714;8.994;2023-11-21T05:07:29;7.10;1.00
6662;DHT22;3367;48.714;8.994;2023-11-21T05:10:00;7.10;1.00
6662;DHT22;3367;48.714;8.994;2023-11-21T05:12:31;7.10;1.00
6662;DHT22;3367;48.714;8.994;2023-11-21T05:14:59;7.20;1.00
6662;DHT22;3367;48.714;8.994;2023-11-21T05:17:26;7.10;1.00
6662;DHT22;3367;48.714;8.994;2023-11-21T05:19:52;7.20;1.00
6662;DHT22;3367;48.714;8.994;2023-11-21T05:22:19;7.10;1.00
6662;DHT22;3367;48.714;8.994;2023-11-21T05:24:48;7.10;1.00
6662;DHT22;3367;48.714;8.994;2023-11-21T05:27:23;7.00;1.00
6662;DHT22;3367;48.714;8.994;2023-11-21T05:29:53;7.00;1.00
6662;DHT22;3367;48.714;8.994;2023-11-21T05:32:19;7.00;1.00
6662;DHT22;3367;48.714;8.994;2023-11-21T05:34:46;7.00;1.00
6662;DHT22;3367;48.714;8.994;2023-11-21T05:37:13;7.00;1.00
6662;DHT22;3367;48.714;8.994;2023-11-21T05:39:39;7.00;1.00
6662;DHT22;3367;48.714;8.994;2023-11-21T05:42:08;7.00;1.00
6662;DHT22;3367;48.714;8.994;2023-11-21T05:44:37;6.90;1.00
6662;DHT22;3367;48.714;8.994;2023-11-21T05:47:18;7.00;62.00
6662;DHT22;3367;48.714;8.994;2023-11-21T05:49:44;7.00;72.10
6662;DHT22;3367;48.714;8.994;2023-11-21T05:52:15;7.00;92.40
6662;DHT22;3367;48.714;8.994;2023-11-21T05:54:42;7.00;89.90
6662;DHT22;3367;48.714;8.994;2023-11-21T05:57:12;6.90;99.90
6662;DHT22;3367;48.714;8.994;2023-11-21T05:59:40;6.90;99.90
6662;DHT22;3367;48.714;8.994;2023-11-21T06:02:06;6.90;99.90
6662;DHT22;3367;48.714;8.994;2023-11-21T06:04:39;6.90;99.90
6662;DHT22;3367;48.714;8.994;2023-11-21T06:07:08;6.90;99.90
6662;DHT22;3367;48.714;8.994;2023-11-21T06:09:36;6.90;99.90
6662;DHT22;3367;48.714;8.994;2023-11-21T06:12:04;6.90;99.90
6662;DHT22;3367;48.714;8.994;2023-11-21T06:14:37;6.80;99.90
6662;DHT22;3367;48.714;8.994;2023-11-21T06:17:13;6.80;99.90
6662;DHT22;3367;48.714;8.994;2023-11-21T06:19:39;6.80;99.90
6662;DHT22;3367;48.714;8.994;2023-11-21T06:22:06;6.80;99.90
6662;DHT22;3367;48.714;8.994;2023-11-21T06:24:36;6.80;99.90
6662;DHT22;3367;48.714;8.994;2023-11-21T06:27:06;6.70;99.90
6662;DHT22;3367;48.714;8.994;2023-11-21T06:29:38;6.80;99.90
6662;DHT22;3367;48.714;8.994;2023-11-21T06:32:06;6.80;99.90
6662;DHT22;3367;48.714;8.994;2023-11-21T06:34:37;6.80;99.90
6662;DHT22;3367;48.714;8.994;2023-11-21T06:37:03;6.80;99.90
6662;DHT22;3367;48.714;8.994;2023-11-21T06:39:34;6.80;99.90
6662;DHT22;3367;48.714;8.994;2023-11-21T06:42:04;6.80;99.90
6662;DHT22;3367;48.714;8.994;2023-11-21T06:44:31;6.80;99.90
6662;DHT22;3367;48.714;8.994;2023-11-21T06:47:06;6.80;99.90
6662;DHT22;3367;48.714;8.994;2023-11-21T06:49:34;6.80;99.90
6662;DHT22;3367;48.714;8.994;2023-11-21T06:52:02;6.80;99.90
6662;DHT22;3367;48.714;8.994;2023-11-21T06:54:30;6.90;99.90
6662;DHT22;3367;48.714;8.994;2023-11-21T06:57:07;6.90;1.00
6662;DHT22;3367;48.714;8.994;2023-11-21T06:59:37;6.90;1.00
6662;DHT22;3367;48.714;8.994;2023-11-21T07:02:04;7.00;99.90
6662;DHT22;3367;48.714;8.994;2023-11-21T07:04:36;7.00;99.90
6662;DHT22;3367;48.714;8.994;2023-11-21T07:07:06;7.00;1.00
6662;DHT22;3367;48.714;8.994;2023-11-21T07:09:36;7.10;1.00
6662;DHT22;3367;48.714;8.994;2023-11-21T07:12:06;7.10;1.00
6662;DHT22;3367;48.714;8.994;2023-11-21T07:14:33;7.10;1.00
6662;DHT22;3367;48.714;8.994;2023-11-21T07:17:06;7.10;1.00
6662;DHT22;3367;48.714;8.994;2023-11-21T07:19:37;7.20;1.00
6662;DHT22;3367;48.714;8.994;2023-11-21T07:22:03;7.20;1.00
6662;DHT22;3367;48.714;8.994;2023-11-21T07:24:31;7.20;1.00
6662;DHT22;3367;48.714;8.994;2023-11-21T07:26:58;7.30;1.00
6662;DHT22;3367;48.714;8.994;2023-11-21T07:29:25;7.30;1.00
6662;DHT22;3367;48.714;8.994;2023-11-21T07:31:52;7.40;1.00
6662;DHT22;3367;48.714;8.994;2023-11-21T07:34:19;7.40;1.00
6662;DHT22;3367;48.714;8.994;2023-11-21T07:36:47;7.40;99.90
6662;DHT22;3367;48.714;8.994;2023-11-21T07:39:14;7.50;99.90
6662;DHT22;3367;48.714;8.994;2023-11-21T07:41:42;7.50;99.90
6662;DHT22;3367;48.714;8.994;2023-11-21T07:44:14;7.50;99.90
6662;DHT22;3367;48.714;8.994;2023-11-21T07:46:42;7.50;99.90
6662;DHT22;3367;48.714;8.994;2023-11-21T07:49:08;7.60;99.90
6662;DHT22;3367;48.714;8.994;2023-11-21T07:51:35;7.60;99.90
6662;DHT22;3367;48.714;8.994;2023-11-21T07:54:03;7.60;99.90
6662;DHT22;3367;48.714;8.994;2023-11-21T07:56:31;7.60;99.90
6662;DHT22;3367;48.714;8.994;2023-11-21T07:58:57;7.70;99.90
6662;DHT22;3367;48.714;8.994;2023-11-21T08:01:24;7.70;99.90
6662;DHT22;3367;48.714;8.994;2023-11-21T08:03:53;7.70;86.70
6662;DHT22;3367;48.714;8.994;2023-11-21T08:06:22;7.70;1.00
6662;DHT22;3367;48.714;8.994;2023-11-21T08:08:49;7.70;1.00
6662;DHT22;3367;48.714;8.994;2023-11-21T08:11:17;7.90;1.00
6662;DHT22;3367;48.714;8.994;2023-11-21T08:13:45;7.80;1.00
6662;DHT22;3367;48.714;8.994;2023-11-21T08:16:12;7.80;1.00
6662;DHT22;3367;48.714;8.994;2023-11-21T08:18:39;7.90;1.00
6662;DHT22;3367;48.714;8.994;2023-11-21T08:21:06;8.00;1.00
6662;DHT22;3367;48.714;8.994;2023-11-21T08:23:33;8.00;99.90
6662;DHT22;3367;48.714;8.994;2023-11-21T08:26:00;8.10;99.90
6662;DHT22;3367;48.714;8.994;2023-11-21T08:28:30;8.20;99.90
6662;DHT22;3367;48.714;8.994;2023-11-21T08:30:57;8.30;99.90
6662;DHT22;3367;48.714;8.994;2023-11-21T08:33:24;8.40;99.90
6662;DHT22;3367;48.714;8.994;2023-11-21T08:35:51;8.30;1.00
6662;DHT22;3367;48.714;8.994;2023-11-21T08:38:17;8.40;1.00
6662;DHT22;3367;48.714;8.994;2023-11-21T08:40:44;8.40;1.00
6662;DHT22;3367;48.714;8.994;2023-11-21T08:43:11;8.40;1.00
6662;DHT22;3367;48.714;8.994;2023-11-21T08:45:41;8.50;1.00
6662;DHT22;3367;48.714;8.994;2023-11-21T08:48:08;8.50;1.00
6662;DHT22;3367;48.714;8.994;2023-11-21T08:50:37;8.50;1.00
6662;DHT22;3367;48.714;8.994;2023-11-21T08:53:03;8.50;1.00
6662;DHT22;3367;48.714;8.994;2023-11-21T08:55:31;8.50;1.00
6662;DHT22;3367;48.714;8.994;2023-11-21T08:58:02;8.60;1.00
6662;DHT22;3367;48.714;8.994;2023-11-21T09:00:31;8.60;1.00
6662;DHT22;3367;48.714;8.994;2023-11-21T09:03:00;8.60;1.00
6662;DHT22;3367;48.714;8.994;2023-11-21T09:05:27;8.60;1.00
6662;DHT22;3367;48.714;8.994;2023-11-21T09:07:54;8.70;99.90
6662;DHT22;3367;48.714;8.994;2023-11-21T09:10:20;8.60;99.90
6662;DHT22;3367;48.714;8.994;2023-11-21T09:12:47;8.60;99.90
6662;DHT22;3367;48.714;8.994;2023-11-21T09:15:14;8.60;99.90
6662;DHT22;3367;48.714;8.994;2023-11-21T09:17:40;8.50;99.90
6662;DHT22;3367;48.714;8.994;2023-11-21T09:20:10;8.40;99.90
6662;DHT22;3367;48.714;8.994;2023-11-21T09:22:37;8.50;99.90
6662;DHT22;3367;48.714;8.994;2023-11-21T09:25:04;8.50;99.90
6662;DHT22;3367;48.714;8.994;2023-11-21T09:27:32;8.50;99.90
6662;DHT22;3367;48.714;8.994;2023-11-21T09:29:59;8.50;99.90
6662;DHT22;3367;48.714;8.994;2023-11-21T09:32:26;8.50;99.90
6662;DHT22;3367;48.714;8.994;2023-11-21T09:34:52;8.60;99.90
6662;DHT22;3367;48.714;8.994;2023-11-21T09:37:22;8.50;99.90
6662;DHT22;3367;48.714;8.994;2023-11-21T09:39:49;8.60;99.90
6662;DHT22;3367;48.714;8.994;2023-11-21T09:42:21;8.50;1.00
6662;DHT22;3367;48.714;8.994;2023-11-21T09:44:54;8.50;1.00
6662;DHT22;3367;48.714;8.994;2023-11-21T09:47:27;8.50;1.00
6662;DHT22;3367;48.714;8.994;2023-11-21T09:49:54;8.50;1.00
6662;DHT22;3367;48.714;8.994;2023-11-21T09:52:26;8.40;1.00
6662;DHT22;3367;48.714;8.994;2023-11-21T09:54:54;8.40;1.00
6662;DHT22;3367;48.714;8.994;2023-11-21T09:57:23;8.40;93.10
6662;DHT22;3367;48.714;8.994;2023-11-21T09:59:51;8.40;24.70
6662;DHT22;3367;48.714;8.994;2023-11-21T10:02:22;8.40;99.90
6662;DHT22;3367;48.714;8.994;2023-11-21T10:04:51;8.40;99.90
6662;DHT22;3367;48.714;8.994;2023-11-21T10:07:19;8.50;99.90
6662;DHT22;3367;48.714;8.994;2023-11-21T10:09:48;8.50;99.90
6662;DHT22;3367;48.714;8.994;2023-11-21T10:12:15;8.50;99.90
6662;DHT22;3367;48.714;8.994;2023-11-21T10:14:42;8.60;99.90
6662;DHT22;3367;48.714;8.994;2023-11-21T10:17:10;8.60;99.90
6662;DHT22;3367;48.714;8.994;2023-11-21T10:19:39;8.60;99.90
6662;DHT22;3367;48.714;8.994;2023-11-21T10:22:06;8.70;99.90
6662;DHT22;3367;48.714;8.994;2023-11-21T10:24:34;8.70;93.90
6662;DHT22;3367;48.714;8.994;2023-11-21T10:27:04;8.70;99.90
6662;DHT22;3367;48.714;8.994;2023-11-21T10:29:30;8.70;1.00
6662;DHT22;3367;48.714;8.994;2023-11-21T10:32:02;8.70;1.00
6662;DHT22;3367;48.714;8.994;2023-11-21T10:34:29;8.70;1.00
6662;DHT22;3367;48.714;8.994;2023-11-21T10:36:55;8.70;1.00
6662;DHT22;3367;48.714;8.994;2023-11-21T10:39:24;8.70;1.00
6662;DHT22;3367;48.714;8.994;2023-11-21T10:41:55;8.70;1.00
6662;DHT22;3367;48.714;8.994;2023-11-21T10:44:23;8.80;1.00
6662;DHT22;3367;48.714;8.994;2023-11-21T10:46:51;8.80;1.00
6662;DHT22;3367;48.714;8.994;2023-11-21T10:49:21;8.70;1.00
6662;DHT22;3367;48.714;8.994;2023-11-21T10:51:50;8.80;1.00
6662;DHT22;3367;48.714;8.994;2023-11-21T10:54:19;8.70;1.00
6662;DHT22;3367;48.714;8.994;2023-11-21T10:56:47;8.70;1.00
6662;DHT22;3367;48.714;8.994;2023-11-21T10:59:16;8.70;3.50
6662;DHT22;3367;48.714;8.994;2023-11-21T11:01:45;8.70;25.60
6662;DHT22;3367;48.714;8.994;2023-11-21T11:04:14;8.60;99.90
6662;DHT22;3367;48.714;8.994;2023-11-21T11:06:43;8.60;99.90
6662;DHT22;3367;48.714;8.994;2023-11-21T11:09:12;8.60;99.90
6662;DHT22;3367;48.714;8.994;2023-11-21T11:11:39;8.60;99.90
6662;DHT22;3367;48.714;8.994;2023-11-21T11:14:11;8.70;1.00
6662;DHT22;3367;48.714;8.994;2023-11-21T11:16:39;8.80;1.00
6662;DHT22;3367;48.714;8.994;2023-11-21T11:19:07;8.80;1.00
6662;DHT22;3367;48.714;8.994;2023-11-21T11:21:43;8.90;1.00
6662;DHT22;3367;48.714;8.994;2023-11-21T11:24:26;8.90;1.00
6662;DHT22;3367;48.714;8.994;2023-11-21T11:27:05;9.00;99.90
6662;DHT22;3367;48.714;8.994;2023-11-21T11:29:41;9.00;99.90
6662;DHT22;3367;48.714;8.994;2023-11-21T11:32:16;9.00;99.90
6662;DHT22;3367;48.714;8.994;2023-11-21T11:34:54;9.00;99.90
6662;DHT22;3367;48.714;8.994;2023-11-21T11:37:23;8.90;89.40
6662;DHT22;3367;48.714;8.994;2023-11-21T11:39:51;8.90;99.90
6662;DHT22;3367;48.714;8.994;2023-11-21T11:42:21;8.90;99.90
6662;DHT22;3367;48.714;8.994;2023-11-21T11:44:51;8.90;99.90
6662;DHT22;3367;48.714;8.994;2023-11-21T11:47:21;8.90;99.90
6662;DHT22;3367;48.714;8.994;2023-11-21T11:49:57;8.80;99.90
6662;DHT22;3367;48.714;8.994;2023-11-21T11:52:34;8.80;99.90
6662;DHT22;3367;48.714;8.994;2023-11-21T11:55:03;8.80;99.90
6662;DHT22;3367;48.714;8.994;2023-11-21T11:57:30;8.70;99.90
6662;DHT22;3367;48.714;8.994;2023-11-21T12:00:14;8.60;99.90
6662;DHT22;3367;48.714;8.994;2023-11-21T12:02:47;8.70;99.90
6662;DHT22;3367;48.714;8.994;2023-11-21T12:05:16;8.70;1.00
6662;DHT22;3367;48.714;8.994;2023-11-21T12:07:48;8.90;1.00
6662;DHT22;3367;48.714;8.994;2023-11-21T12:10:17;8.80;1.00
6662;DHT22;3367;48.714;8.994;2023-11-21T12:12:46;8.70;99.90
6662;DHT22;3367;48.714;8.994;2023-11-21T12:15:13;8.70;99.90
6662;DHT22;3367;48.714;8.994;2023-11-21T12:17:41;8.80;1.00
6662;DHT22;3367;48.714;8.994;2023-11-21T12:20:09;8.80;99.90
6662;DHT22;3367;48.714;8.994;2023-11-21T12:22:43;8.80;99.90
6662;DHT22;3367;48.714;8.994;2023-11-21T12:25:13;8.90;99.90
6662;DHT22;3367;48.714;8.994;2023-11-21T12:27:42;9.00;1.00
6662;DHT22;3367;48.714;8.994;2023-11-21T12:30:11;9.10;35.30
6662;DHT22;3367;48.714;8.994;2023-11-21T12:32:39;9.10;1.00
6662;DHT22;3367;48.714;8.994;2023-11-21T12:35:07;9.30;1.00
6662;DHT22;3367;48.714;8.994;2023-11-21T12:37:35;9.40;1.00
6662;DHT22;3367;48.714;8.994;2023-11-21T12:40:06;9.40;99.90
6662;DHT22;3367;48.714;8.994;2023-11-21T12:42:33;9.30;99.90
6662;DHT22;3367;48.714;8.994;2023-11-21T12:45:18;9.40;99.90
6662;DHT22;3367;48.714;8.994;2023-11-21T12:47:47;9.40;1.00
6662;DHT22;3367;48.714;8.994;2023-11-21T12:50:14;9.40;1.00
6662;DHT22;3367;48.714;8.994;2023-11-21T12:52:42;9.40;92.50
6662;DHT22;3367;48.714;8.994;2023-11-21T12:55:15;9.40;99.90
6662;DHT22;3367;48.714;8.994;2023-11-21T12:57:43;9.40;43.00
6662;DHT22;3367;48.714;8.994;2023-11-21T13:00:12;9.30;99.90
6662;DHT22;3367;48.714;8.994;2023-11-21T13:02:51;9.30;99.90
6662;DHT22;3367;48.714;8.994;2023-11-21T13:05:26;9.30;12.60
6662;DHT22;3367;48.714;8.994;2023-11-21T13:07:54;9.30;99.90
6662;DHT22;3367;48.714;8.994;2023-11-21T13:10:25;9.30;99.90
6662;DHT22;3367;48.714;8.994;2023-11-21T13:12:55;9.30;99.90
6662;DHT22;3367;48.714;8.994;2023-11-21T13:15:23;9.40;99.90
6662;DHT22;3367;48.714;8.994;2023-11-21T13:17:50;9.40;99.90
6662;DHT22;3367;48.714;8.994;2023-11-21T13:20:19;9.30;28.20
6662;DHT22;3367;48.714;8.994;2023-11-21T13:22:48;9.20;99.90
6662;DHT22;3367;48.714;8.994;2023-11-21T13:25:15;9.30;2.00
6662;DHT22;3367;48.714;8.994;2023-11-21T13:27:45;9.30;73.00
6662;DHT22;3367;48.714;8.994;2023-11-21T13:30:13;9.20;1.00
6662;DHT22;3367;48.714;8.994;2023-11-21T13:32:44;9.20;99.90
6662;DHT22;3367;48.714;8.994;2023-11-21T13:35:12;9.30;99.90
6662;DHT22;3367;48.714;8.994;2023-11-21T13:37:48;9.40;27.20
6662;DHT22;3367;48.714;8.994;2023-11-21T13:40:20;9.30;1.00
6662;DHT22;3367;48.714;8.994;2023-11-21T13:42:49;9.20;99.90
6662;DHT22;3367;48.714;8.994;2023-11-21T13:45:19;9.10;1.00
6662;DHT22;3367;48.714;8.994;2023-11-21T13:47:48;8.90;1.00
6662;DHT22;3367;48.714;8.994;2023-11-21T13:50:16;8.80;1.00
6662;DHT22;3367;48.714;8.994;2023-11-21T13:52:48;8.60;1.00
6662;DHT22;3367;48.714;8.994;2023-11-21T13:55:16;8.60;99.90
6662;DHT22;3367;48.714;8.994;2023-11-21T13:57:43;8.60;99.90
6662;DHT22;3367;48.714;8.994;2023-11-21T14:00:15;8.40;99.90
6662;DHT22;3367;48.714;8.994;2023-11-21T14:03:02;8.50;1.00
6662;DHT22;3367;48.714;8.994;2023-11-21T14:05:34;8.50;1.00
6662;DHT22;3367;48.714;8.994;2023-11-21T14:08:00;8.60;1.00
6662;DHT22;3367;48.714;8.994;2023-11-21T14:10:30;8.60;1.00
6662;DHT22;3367;48.714;8.994;2023-11-21T14:13:05;8.60;1.00
6662;DHT22;3367;48.714;8.994;2023-11-21T14:15:33;8.60;1.00
6662;DHT22;3367;48.714;8.994;2023-11-21T14:18:04;8.60;1.00
6662;DHT22;3367;48.714;8.994;2023-11-21T14:20:33;8.50;1.00
6662;DHT22;3367;48.714;8.994;2023-11-21T14:23:01;8.40;1.00
6662;DHT22;3367;48.714;8.994;2023-11-21T14:25:28;8.40;1.00
6662;DHT22;3367;48.714;8.994;2023-11-21T14:27:55;8.40;1.00
6662;DHT22;3367;48.714;8.994;2023-11-21T14:30:22;8.30;1.00
6662;DHT22;3367;48.714;8.994;2023-11-21T14:32:51;8.40;24.60
6662;DHT22;3367;48.714;8.994;2023-11-21T14:35:18;8.40;11.90
6662;DHT22;3367;48.714;8.994;2023-11-21T14:37:45;8.40;43.90
6662;DHT22;3367;48.714;8.994;2023-11-21T14:40:12;8.40;38.60
6662;DHT22;3367;48.714;8.994;2023-11-21T14:42:41;8.40;99.90
6662;DHT22;3367;48.714;8.994;2023-11-21T14:45:10;8.40;99.90
6662;DHT22;3367;48.714;8.994;2023-11-21T14:47:38;8.40;99.90
6662;DHT22;3367;48.714;8.994;2023-11-21T14:50:11;8.40;99.90
6662;DHT22;3367;48.714;8.994;2023-11-21T14:53:04;8.30;1.00
6662;DHT22;3367;48.714;8.994;2023-11-21T14:55:32;8.20;99.90
6662;DHT22;3367;48.714;8.994;2023-11-21T14:58:04;8.20;99.90
6662;DHT22;3367;48.714;8.994;2023-11-21T15:00:31;8.30;99.90
6662;DHT22;3367;48.714;8.994;2023-11-21T15:03:10;8.30;99.90
6662;DHT22;3367;48.714;8.994;2023-11-21T15:05:51;8.20;99.90
6662;DHT22;3367;48.714;8.994;2023-11-21T15:08:20;8.20;99.90
6662;DHT22;3367;48.714;8.994;2023-11-21T15:10:51;8.20;99.90
6662;DHT22;3367;48.714;8.994;2023-11-21T15:13:19;8.10;99.90
6662;DHT22;3367;48.714;8.994;2023-11-21T15:15:47;8.10;99.90
6662;DHT22;3367;48.714;8.994;2023-11-21T15:18:13;8.10;1.00
6662;DHT22;3367;48.714;8.994;2023-11-21T15:20:40;8.10;1.00
6662;DHT22;3367;48.714;8.994;2023-11-21T15:23:07;8.00;1.00
6662;DHT22;3367;48.714;8.994;2023-11-21T15:25:35;8.00;1.00
6662;DHT22;3367;48.714;8.994;2023-11-21T15:28:02;8.00;1.00
6662;DHT22;3367;48.714;8.994;2023-11-21T15:30:30;7.90;1.00
6662;DHT22;3367;48.714;8.994;2023-11-21T15:32:57;7.90;1.00
6662;DHT22;3367;48.714;8.994;2023-11-21T15:35:24;7.90;1.00
6662;DHT22;3367;48.714;8.994;2023-11-21T15:37:53;7.90;1.00
6662;DHT22;3367;48.714;8.994;2023-11-21T15:40:21;7.90;1.00
6662;DHT22;3367;48.714;8.994;2023-11-21T15:42:49;7.90;1.00
6662;DHT22;3367;48.714;8.994;2023-11-21T15:45:16;7.90;1.00
6662;DHT22;3367;48.714;8.994;2023-11-21T15:47:46;7.90;1.00
6662;DHT22;3367;48.714;8.994;2023-11-21T15:50:13;7.90;1.00
6662;DHT22;3367;48.714;8.994;2023-11-21T15:52:40;7.80;1.00
6662;DHT22;3367;48.714;8.994;2023-11-21T15:55:09;7.80;1.00
6662;DHT22;3367;48.714;8.994;2023-11-21T15:57:38;7.80;1.00
6662;DHT22;3367;48.714;8.994;2023-11-21T16:00:08;7.80;1.00
6662;DHT22;3367;48.714;8.994;2023-11-21T16:02:41;7.80;1.00
6662;DHT22;3367;48.714;8.994;2023-11-21T16:05:08;7.80;1.00
6662;DHT22;3367;48.714;8.994;2023-11-21T16:07:35;7.80;1.00
6662;DHT22;3367;48.714;8.994;2023-11-21T16:10:04;7.80;1.00
6662;DHT22;3367;48.714;8.994;2023-11-21T16:12:32;7.70;40.70
6662;DHT22;3367;48.714;8.994;2023-11-21T16:14:59;7.70;42.80
6662;DHT22;3367;48.714;8.994;2023-11-21T16:17:30;7.70;1.00
6662;DHT22;3367;48.714;8.994;2023-11-21T16:19:58;7.70;5.90
6662;DHT22;3367;48.714;8.994;2023-11-21T16:22:25;7.70;1.00
6662;DHT22;3367;48.714;8.994;2023-11-21T16:24:53;7.70;19.50
6662;DHT22;3367;48.714;8.994;2023-11-21T16:27:20;7.70;4.20
6662;DHT22;3367;48.714;8.994;2023-11-21T16:29:46;7.70;1.00
6662;DHT22;3367;48.714;8.994;2023-11-21T16:32:13;7.70;1.00
6662;DHT22;3367;48.714;8.994;2023-11-21T16:34:43;7.70;1.00
6662;DHT22;3367;48.714;8.994;2023-11-21T16:37:10;7.70;1.00
6662;DHT22;3367;48.714;8.994;2023-11-21T16:39:37;7.70;1.00